Pagrindinis puslapis
METAR-TAF:

METAR-TAF

Oro uostai :

Akra, Gana

platuma: 05-36N, ilguma: 000-10W, Aukštis: 68 m

Dabartinis oras

Ataskaita buvo paskelbta 1 valandą ir 4 minutes, ne 12:00 UTC
Vėjas 13 kt iš Pietų/Pietvakarių
Temperatūra 29°C
Drėgmė 74%
Slėgis 1012 hPa
Matomumas 10 km arba daugiau
Su prošvaistėmis ne aukštis 2000 ft
Su prošvaistėmis ne aukštis 4400 ft

METAR: DGAA 171200Z 20013KT 9999 BKN020 BKN044 29/24 Q1012 NOSIG

Laikas: 13:04 (13:04 UTC)

Prognozė

Ataskaita buvo paskelbta 1 valandą ir 59 minutes, ne 11:05 UTC
Prognozė galioja nuo 17 metu 12 UTC su 18 metu 18 UTC
Vėjas 15 kt iš Pietų
Matomumas 10 km arba daugiau
Su prošvaistėmis ne aukštis 2000 ft
Tikimybė 40% :
Laikinai
nuo 17 metu 15 UTC su 17 metu 19 UTC
Matomumas: 6000 m
Su prošvaistėmis ne aukštis 800 ft
lietus
Tapsmas
nuo 18 metu 01 UTC su 18 metu 03 UTC
Vėjas 10 kt iš Vakarų
Su prošvaistėmis ne aukštis 1200 ft

TAF: DGAA 171105Z 1712/1818 19015KT 9999 BKN020 PROB40 TEMPO 1715/1719 6000 -RA BKN008 BECMG 1801/1803 27010KT BKN012

Orai ataskaitas ir orų prognozės (METAR, TAF).

turimą stotys yra geltonos ir raudonos taškus žemėlapyje.

Perkelti pele per norėdami pamatyti stoties vardą.

Tada spustelėkite, norėdami matyti oro stebėjimo ir prognozės.

Norėdami pakeisti žemėlapį: spustelėkite ant žalios mygtukų su juodo kryžiaus žemyn,; žalią mygtuką su brūkšneliu, jei norite nutolinti; arba žalių rodyklių gretimoms žemėlapius.


METAR-TAF: